Airfield :
LOGIN :

Register | Disclaimer

   EN    FR    IT 

 










Legend :    VFR   Marginal VFR   IFR   Intensive IFR   Very Intensive IFR
Visi :
Ceiling :
>= 8 km
>= 3000ft
5 to 8 km
1000 to 3000 ft
1500m to 5 km
500 to 1000 ft
800 to 1500m
200 to 500 ft
< 800m
< 200 ft
Symbols :   Thunderstorms  Fog  Heavy snow  Heavy precipitations  Wind > 20 kt
SIGMETs :     Misc.  Thunderstorms  Icing  Turbulence  Mountain Waves  Volcanic Ashes






- Airport Elevation : 100 ft


EBDT - Schaffen

CURRENT METAR :
  • 141525Z AUTO VRB02KT 9999 SCT052/// BKN180/// 16/05 Q1021 BLU

EXPIRED METARs :
  • 141455Z AUTO 27006KT 9999 FEW053/// 16/04 Q1021 BLU
  • 141425Z AUTO 27006KT 9999 FEW054/// BKN180/// 15/03 Q1021 BLU
  • 141355Z AUTO 28004KT 9999 SCT160/// SCT180/// 16/03 Q1021 BLU
  • 141325Z AUTO 29004KT 9999 FEW053/// 16/05 Q1022 BLU
  • 141255Z AUTO 25005KT 9999 SCT048/// 16/04 Q1022 BLU
  • 141225Z AUTO 31006KT 9999 FEW043/// 15/04 Q1023 BLU
  • 141155Z AUTO 29006KT 9999 FEW039/// BKN140/// BKN180/// 14/06 Q1023 BLU
  • 141125Z AUTO 29005KT 9999 FEW038/// SCT130/// BKN210/// 15/07 Q1023 BLU
  • 141055Z AUTO 29004KT 9999 SCT037/// BKN130/// 15/07 Q1023 BLU

Expired Forecast.



MET'MAP, your aeronautical weather chart ! - Copyright ORBIFLY December 2007 - Disclaimer

ORBIFLY MET'MAP TEAM :

Programming & Development : Alexandra Zaïnal
Original concept : Baudouin d'Aumeries
Technical & hardware support : Manuel Goepfert
Assistance : Marc-Olivier Méhu




SOURCES & CREDITS :

   NOAA